sensor_id;sensor_type;location;lat;lon;timestamp;pressure;altitude;pressure_sealevel;temperature
49557;BMP280;35462;45.048;7.666;2023-06-01T00:09:28;99092.00;;;21.93
49557;BMP280;35462;45.048;7.666;2023-06-01T00:24:48;99090.78;;;21.94
49557;BMP280;35462;45.048;7.666;2023-06-01T00:40:07;99075.13;;;21.98
49557;BMP280;35462;45.048;7.666;2023-06-01T00:55:27;99062.63;;;22.01
49557;BMP280;35462;45.048;7.666;2023-06-01T01:26:08;99063.97;;;21.91
49557;BMP280;35462;45.048;7.666;2023-06-01T01:41:31;99060.00;;;21.86
49557;BMP280;35462;45.048;7.666;2023-06-01T01:56:51;99047.50;;;21.83
49557;BMP280;35462;45.048;7.666;2023-06-01T02:12:12;99049.34;;;21.78
49557;BMP280;35462;45.048;7.666;2023-06-01T02:27:32;99031.69;;;21.77
49557;BMP280;35462;45.048;7.666;2023-06-01T02:42:51;99024.81;;;21.76
49557;BMP280;35462;45.048;7.666;2023-06-01T02:58:11;99041.16;;;21.67
49557;BMP280;35462;45.048;7.666;2023-06-01T03:13:56;99027.53;;;21.56
49557;BMP280;35462;45.048;7.666;2023-06-01T03:29:19;99024.66;;;21.65
49557;BMP280;35462;45.048;7.666;2023-06-01T03:44:39;99029.28;;;21.59
49557;BMP280;35462;45.048;7.666;2023-06-01T04:00:01;99034.00;;;21.64
49557;BMP280;35462;45.048;7.666;2023-06-01T04:15:29;99035.69;;;21.61
49557;BMP280;35462;45.048;7.666;2023-06-01T04:30:50;99071.72;;;21.64
49557;BMP280;35462;45.048;7.666;2023-06-01T04:46:10;99066.00;;;21.76
49557;BMP280;35462;45.048;7.666;2023-06-01T05:01:31;99066.19;;;21.73
49557;BMP280;35462;45.048;7.666;2023-06-01T05:16:51;99077.38;;;21.46
49557;BMP280;35462;45.048;7.666;2023-06-01T05:32:11;99080.63;;;21.70
49557;BMP280;35462;45.048;7.666;2023-06-01T05:47:31;99079.75;;;21.98
49557;BMP280;35462;45.048;7.666;2023-06-01T06:02:50;99080.38;;;22.07
49557;BMP280;35462;45.048;7.666;2023-06-01T06:18:10;99074.94;;;22.27
49557;BMP280;35462;45.048;7.666;2023-06-01T06:33:29;99082.03;;;24.93
49557;BMP280;35462;45.048;7.666;2023-06-01T06:48:49;99074.66;;;27.18
49557;BMP280;35462;45.048;7.666;2023-06-01T07:04:08;99065.88;;;28.74
49557;BMP280;35462;45.048;7.666;2023-06-01T07:19:28;99073.75;;;31.86
49557;BMP280;35462;45.048;7.666;2023-06-01T07:34:52;99074.22;;;31.40
49557;BMP280;35462;45.048;7.666;2023-06-01T07:50:11;99052.66;;;30.94
49557;BMP280;35462;45.048;7.666;2023-06-01T08:05:31;99065.78;;;30.88
49557;BMP280;35462;45.048;7.666;2023-06-01T08:20:51;99047.75;;;30.64
49557;BMP280;35462;45.048;7.666;2023-06-01T08:36:10;99033.34;;;30.99
49557;BMP280;35462;45.048;7.666;2023-06-01T08:51:31;99022.59;;;30.66
49557;BMP280;35462;45.048;7.666;2023-06-01T09:06:52;99009.47;;;30.09
49557;BMP280;35462;45.048;7.666;2023-06-01T09:22:11;98991.97;;;29.64
49557;BMP280;35462;45.048;7.666;2023-06-01T09:37:31;98984.75;;;29.53
49557;BMP280;35462;45.048;7.666;2023-06-01T09:52:57;98983.81;;;29.51
49557;BMP280;35462;45.048;7.666;2023-06-01T10:24:13;98963.09;;;29.35
49557;BMP280;35462;45.048;7.666;2023-06-01T10:39:32;98951.84;;;29.18
49557;BMP280;35462;45.048;7.666;2023-06-01T10:54:52;98946.81;;;29.09
49557;BMP280;35462;45.048;7.666;2023-06-01T11:10:11;98937.38;;;29.10
49557;BMP280;35462;45.048;7.666;2023-06-01T11:25:31;98930.50;;;28.96
49557;BMP280;35462;45.048;7.666;2023-06-01T11:40:58;98925.28;;;28.73
49557;BMP280;35462;45.048;7.666;2023-06-01T11:56:17;98916.09;;;28.50
49557;BMP280;35462;45.048;7.666;2023-06-01T12:11:37;98892.94;;;28.31
49557;BMP280;35462;45.048;7.666;2023-06-01T12:26:56;98876.38;;;28.16
49557;BMP280;35462;45.048;7.666;2023-06-01T12:42:17;98869.97;;;28.26
49557;BMP280;35462;45.048;7.666;2023-06-01T12:57:36;98841.47;;;28.27
49557;BMP280;35462;45.048;7.666;2023-06-01T13:12:58;98834.38;;;28.24
49557;BMP280;35462;45.048;7.666;2023-06-01T13:28:17;98812.38;;;28.09
49557;BMP280;35462;45.048;7.666;2023-06-01T13:43:39;98793.06;;;28.07
49557;BMP280;35462;45.048;7.666;2023-06-01T13:58:59;98781.13;;;28.10
49557;BMP280;35462;45.048;7.666;2023-06-01T14:14:18;98764.47;;;28.14
49557;BMP280;35462;45.048;7.666;2023-06-01T14:29:37;98736.72;;;28.02
49557;BMP280;35462;45.048;7.666;2023-06-01T14:44:57;98713.25;;;28.12
49557;BMP280;35462;45.048;7.666;2023-06-01T15:15:17;98693.59;;;28.27
49557;BMP280;35462;45.048;7.666;2023-06-01T15:30:39;98677.75;;;28.25
49557;BMP280;35462;45.048;7.666;2023-06-01T15:45:58;98665.44;;;28.11
49557;BMP280;35462;45.048;7.666;2023-06-01T16:01:18;98656.59;;;27.98
49557;BMP280;35462;45.048;7.666;2023-06-01T16:16:37;98638.28;;;27.85
49557;BMP280;35462;45.048;7.666;2023-06-01T16:31:57;98622.69;;;27.73
49557;BMP280;35462;45.048;7.666;2023-06-01T16:47:17;98609.84;;;27.61
49557;BMP280;35462;45.048;7.666;2023-06-01T17:02:37;98602.34;;;27.54
49557;BMP280;35462;45.048;7.666;2023-06-01T17:17:56;98600.97;;;27.47
49557;BMP280;35462;45.048;7.666;2023-06-01T17:33:15;98601.09;;;27.42
49557;BMP280;35462;45.048;7.666;2023-06-01T17:48:35;98602.56;;;27.30
49557;BMP280;35462;45.048;7.666;2023-06-01T18:03:55;98604.66;;;27.24
49557;BMP280;35462;45.048;7.666;2023-06-01T18:19:14;98613.97;;;27.16
49557;BMP280;35462;45.048;7.666;2023-06-01T18:34:34;98613.66;;;27.06
49557;BMP280;35462;45.048;7.666;2023-06-01T18:49:53;98622.75;;;26.96
49557;BMP280;35462;45.048;7.666;2023-06-01T19:05:13;98622.19;;;26.84
49557;BMP280;35462;45.048;7.666;2023-06-01T19:35:57;98642.13;;;26.61
49557;BMP280;35462;45.048;7.666;2023-06-01T19:51:17;98652.41;;;26.50
49557;BMP280;35462;45.048;7.666;2023-06-01T20:06:42;98673.38;;;26.36
49557;BMP280;35462;45.048;7.666;2023-06-01T20:22:02;98672.56;;;26.23
49557;BMP280;35462;45.048;7.666;2023-06-01T20:37:22;98687.56;;;26.11
49557;BMP280;35462;45.048;7.666;2023-06-01T20:52:41;98675.94;;;25.92
49557;BMP280;35462;45.048;7.666;2023-06-01T21:08:01;98674.59;;;25.80
49557;BMP280;35462;45.048;7.666;2023-06-01T21:23:20;98671.34;;;25.63
49557;BMP280;35462;45.048;7.666;2023-06-01T21:38:40;98668.28;;;25.49
49557;BMP280;35462;45.048;7.666;2023-06-01T21:53:59;98676.09;;;25.34
49557;BMP280;35462;45.048;7.666;2023-06-01T22:09:19;98678.94;;;25.17
49557;BMP280;35462;45.048;7.666;2023-06-01T22:24:38;98683.72;;;25.06
49557;BMP280;35462;45.048;7.666;2023-06-01T22:39:58;98684.56;;;24.95
49557;BMP280;35462;45.048;7.666;2023-06-01T22:55:17;98679.72;;;24.83
49557;BMP280;35462;45.048;7.666;2023-06-01T23:10:37;98700.97;;;24.74
49557;BMP280;35462;45.048;7.666;2023-06-01T23:26:11;98708.22;;;24.60
49557;BMP280;35462;45.048;7.666;2023-06-01T23:41:30;98707.25;;;24.52
49557;BMP280;35462;45.048;7.666;2023-06-01T23:56:50;98696.78;;;24.33
